Aérodrome :
LOGIN :

S'inscrire | Disclaimer

   EN    FR    IT 

 










Légende :    VFR   VFR Marginal   IFR   IFR Intensif   IFR Très Intensif
Visi : 
Plafond : 
>= 8 km
>= 3000ft
5 à 8 km
1000 à 3000 ft
1500m à 5 km
500 à 1000 ft
800 à 1500m
200 à 500 ft
< 800m
< 200 ft
Symboles :   Orages  Brouillard  Fortes neiges  Fortes précipitations  Vent > 20 kt
SIGMETs :   Divers  Orages  Givrage  Turbulence  Onde Orograph.  Cendres Volcan.







- Altitude de l'aérodrome : 1411 ft
- Code IATA : GVA


LSGG - Genève Cointrin

DERNIER METAR :
  • 291250Z 06008KT 9999 FEW050 BKN300 18/06 Q1026 NOSIG

METARs EXPIRÉS :
  • 291220Z 05008KT 010V080 9999 FEW045 BKN300 18/06 Q1027 NOSIG
  • 291150Z 04007KT 360V080 9999 FEW040 BKN300 17/06 Q1027 NOSIG
  • 291120Z 05008KT 010V080 9999 FEW040 BKN300 17/06 Q1027 NOSIG
  • 291050Z 06006KT 030V120 9999 FEW040 BKN300 16/07 Q1028 NOSIG
  • 291020Z 05006KT 9999 FEW040 BKN300 15/06 Q1028 NOSIG

TAF TAF LSGG
Valide du 29 à 12h jusqu'au 30 à 18h UTC


291125Z 2912/3018 05007KT 9999 FEW040 TX20/2915Z TN04/3006Z TX21/3015Z
BECMG 2917/2919 VRB02KT CAVOK
ATIS : +41 22 417 40 81
Pas de NOTAMs connus pour ce terrain.



MET'MAP, la Météo Aéronautique d'un coup d'oeil ! - Copyright ORBIFLY Décembre 2007 - Disclaimer

ORBIFLY MET'MAP TEAM :

Programmation & Développement : Alexandra Zaïnal
Conception & Développement : Baudouin d'Aumeries
Co-Programmation & Développement : Marc-Olivier Méhu
Soutien technique & logistique : Manuel Goepfert

Contact : metmap@orbifly.com




SOURCES & CREDITS :

   NOAA